createdAt,value
2018-11-13T00:00:43.946Z,0.00
2018-11-13T00:01:43.937Z,0.00
2018-11-13T00:02:43.926Z,0.00
2018-11-13T00:03:43.915Z,0.00
2018-11-13T00:04:43.905Z,0.00
2018-11-13T00:05:43.894Z,0.00
2018-11-13T00:06:43.883Z,0.00
2018-11-13T00:07:43.872Z,0.00
2018-11-13T00:08:43.861Z,0.00
2018-11-13T00:09:43.848Z,0.00
2018-11-13T00:10:43.839Z,0.00
2018-11-13T00:11:43.828Z,0.00
2018-11-13T00:12:43.817Z,0.00
2018-11-13T00:13:43.805Z,0.00
2018-11-13T00:14:43.795Z,0.00
2018-11-13T00:15:43.782Z,0.00
2018-11-13T00:16:43.772Z,0.00
2018-11-13T00:17:43.760Z,0.00
2018-11-13T00:18:43.765Z,0.00
2018-11-13T00:19:43.738Z,0.00
2018-11-13T00:20:43.736Z,0.00
2018-11-13T00:21:43.715Z,0.00
2018-11-13T00:22:43.708Z,0.00
2018-11-13T00:23:43.694Z,0.00
2018-11-13T00:24:43.691Z,0.00
2018-11-13T00:25:43.673Z,0.00
2018-11-13T00:26:43.663Z,0.00
2018-11-13T00:27:43.769Z,0.00
2018-11-13T00:28:43.639Z,0.00
2018-11-13T00:29:43.628Z,0.00
2018-11-13T00:30:43.619Z,0.00
2018-11-13T00:31:43.606Z,0.00
2018-11-13T00:32:43.597Z,0.00
2018-11-13T00:33:43.583Z,0.00
2018-11-13T00:34:43.574Z,0.00
2018-11-13T00:35:43.563Z,0.00
2018-11-13T00:36:43.552Z,0.00
2018-11-13T00:37:43.538Z,0.00
2018-11-13T00:38:43.527Z,0.00
2018-11-13T00:39:43.572Z,0.00
2018-11-13T00:40:43.509Z,0.00
2018-11-13T00:41:43.495Z,0.00
2018-11-13T00:42:43.486Z,0.00
2018-11-13T00:43:43.474Z,0.00
2018-11-13T00:44:43.464Z,0.00
2018-11-13T00:45:43.777Z,0.00
2018-11-13T00:46:43.440Z,0.00
2018-11-13T00:47:43.429Z,0.00
2018-11-13T00:48:43.420Z,0.00
2018-11-13T00:49:43.407Z,0.00
2018-11-13T00:50:43.522Z,0.00
2018-11-13T00:51:43.385Z,0.00
2018-11-13T00:52:43.374Z,0.00
2018-11-13T00:53:43.362Z,0.00
2018-11-13T00:54:43.381Z,0.00
2018-11-13T00:55:43.342Z,0.00
2018-11-13T00:56:43.331Z,0.00
2018-11-13T00:57:43.320Z,0.00
2018-11-13T00:58:43.309Z,0.00
2018-11-13T00:59:43.297Z,0.00
2018-11-13T01:00:43.310Z,0.00
2018-11-13T01:01:43.273Z,0.00
2018-11-13T01:02:43.266Z,0.00
2018-11-13T01:03:43.254Z,0.00
2018-11-13T01:04:43.242Z,0.00
2018-11-13T01:05:43.317Z,0.00
2018-11-13T01:06:43.219Z,0.00
2018-11-13T01:07:43.253Z,0.00
2018-11-13T01:08:43.199Z,0.00
2018-11-13T01:09:43.185Z,0.00
2018-11-13T01:10:43.180Z,0.00
2018-11-13T01:11:43.224Z,0.00
2018-11-13T01:12:43.153Z,0.00
2018-11-13T01:13:43.145Z,0.00
2018-11-13T01:14:43.134Z,0.00
2018-11-13T01:15:43.121Z,0.00
2018-11-13T01:16:43.110Z,0.00
2018-11-13T01:17:43.098Z,0.00
2018-11-13T01:18:43.088Z,0.00
2018-11-13T01:19:43.078Z,0.00
2018-11-13T01:20:43.066Z,0.00
2018-11-13T01:21:43.056Z,0.00
2018-11-13T01:22:43.047Z,0.00
2018-11-13T01:23:43.088Z,0.00
2018-11-13T01:24:43.021Z,0.00
2018-11-13T01:25:43.011Z,0.00
2018-11-13T01:26:43.000Z,0.00
2018-11-13T01:27:42.988Z,0.00
2018-11-13T01:28:42.978Z,0.00
2018-11-13T01:29:42.967Z,0.00
2018-11-13T01:30:42.955Z,0.00
2018-11-13T01:31:42.945Z,0.00
2018-11-13T01:32:42.935Z,0.00
2018-11-13T01:33:42.922Z,0.00
2018-11-13T01:34:42.911Z,0.00
2018-11-13T01:35:42.903Z,0.00
2018-11-13T01:36:42.889Z,0.00
2018-11-13T01:37:42.928Z,0.00
2018-11-13T01:38:42.869Z,0.00
2018-11-13T01:39:42.856Z,0.00
2018-11-13T01:40:42.849Z,0.00
2018-11-13T01:41:42.896Z,0.00
2018-11-13T01:42:42.835Z,0.00
2018-11-13T01:43:42.811Z,0.00
2018-11-13T01:44:42.803Z,0.00
2018-11-13T01:45:42.790Z,0.00
2018-11-13T01:46:42.781Z,0.00
2018-11-13T01:47:42.769Z,0.00
2018-11-13T01:48:42.757Z,0.00
2018-11-13T01:49:42.751Z,0.00
2018-11-13T01:50:42.735Z,0.00
2018-11-13T01:51:42.724Z,0.00
2018-11-13T01:52:42.714Z,0.00
2018-11-13T01:53:42.704Z,0.00
2018-11-13T01:54:42.690Z,0.00
2018-11-13T01:55:42.680Z,0.00
2018-11-13T01:56:42.673Z,0.00
2018-11-13T01:57:42.659Z,0.00
2018-11-13T01:58:42.654Z,0.00
2018-11-13T01:59:42.637Z,0.00
2018-11-13T02:00:42.627Z,0.00
2018-11-13T02:01:42.616Z,0.00
2018-11-13T02:02:42.607Z,0.00
2018-11-13T02:03:42.590Z,0.00
2018-11-13T02:04:42.580Z,0.00
2018-11-13T02:05:42.578Z,0.00
2018-11-13T02:06:42.561Z,0.00
2018-11-13T02:07:42.546Z,0.00
2018-11-13T02:08:42.539Z,0.00
2018-11-13T02:09:42.527Z,0.00
2018-11-13T02:10:42.521Z,0.00
2018-11-13T02:11:42.502Z,0.00
2018-11-13T02:12:42.498Z,0.00
2018-11-13T02:13:42.480Z,0.00
2018-11-13T02:14:42.472Z,0.00
2018-11-13T02:15:42.460Z,0.00
2018-11-13T02:16:42.449Z,0.00
2018-11-13T02:17:42.438Z,0.00
2018-11-13T02:18:42.426Z,0.00
2018-11-13T02:19:42.416Z,0.00
2018-11-13T02:20:42.403Z,0.00
2018-11-13T02:21:42.394Z,0.00
2018-11-13T02:22:42.384Z,0.00
2018-11-13T02:23:42.370Z,0.00
2018-11-13T02:24:42.361Z,0.00
2018-11-13T02:25:42.359Z,0.00
2018-11-13T02:26:42.338Z,0.00
2018-11-13T02:27:42.327Z,0.00
2018-11-13T02:28:42.317Z,0.00
2018-11-13T02:29:42.307Z,0.00
2018-11-13T02:30:42.294Z,0.00
2018-11-13T02:31:42.288Z,0.00
2018-11-13T02:32:42.273Z,0.00
2018-11-13T02:33:42.261Z,0.00
2018-11-13T02:34:42.249Z,0.00
2018-11-13T02:35:42.338Z,0.00
2018-11-13T02:36:42.227Z,0.00
2018-11-13T02:37:42.218Z,0.00
2018-11-13T02:38:42.208Z,0.00
2018-11-13T02:39:42.195Z,0.00
2018-11-13T02:40:42.186Z,0.00
2018-11-13T02:41:42.175Z,0.00
2018-11-13T02:42:42.162Z,0.00
2018-11-13T02:43:42.152Z,0.00
2018-11-13T02:44:42.141Z,0.00
2018-11-13T02:45:42.131Z,0.00
2018-11-13T02:46:42.119Z,0.00
2018-11-13T02:47:42.106Z,0.00
2018-11-13T02:48:42.537Z,0.00
2018-11-13T02:49:42.120Z,0.00
2018-11-13T02:50:42.075Z,0.00
2018-11-13T02:51:42.102Z,0.00
2018-11-13T02:52:42.059Z,0.00
2018-11-13T02:53:42.042Z,0.00
2018-11-13T02:54:42.032Z,0.00
2018-11-13T02:55:42.023Z,0.00
2018-11-13T02:56:42.008Z,0.00
2018-11-13T02:57:42.007Z,0.00
2018-11-13T02:58:41.986Z,0.00
2018-11-13T02:59:41.978Z,0.00
2018-11-13T03:00:41.965Z,0.00
2018-11-13T03:01:41.958Z,0.00
2018-11-13T03:02:41.946Z,0.00
2018-11-13T03:03:41.933Z,0.00
2018-11-13T03:04:41.925Z,0.00
2018-11-13T03:05:41.911Z,0.00
2018-11-13T03:06:41.904Z,0.00
2018-11-13T03:07:41.888Z,0.00
2018-11-13T03:08:41.876Z,0.00
2018-11-13T03:09:41.868Z,0.00
2018-11-13T03:10:41.858Z,0.00
2018-11-13T03:11:41.846Z,0.00
2018-11-13T03:12:41.836Z,0.00
2018-11-13T03:13:41.925Z,0.00
2018-11-13T03:14:41.812Z,0.00
2018-11-13T03:15:41.800Z,0.00
2018-11-13T03:16:41.789Z,0.00
2018-11-13T03:17:41.777Z,0.00
2018-11-13T03:18:41.766Z,0.00
2018-11-13T03:19:41.756Z,0.00
2018-11-13T03:20:41.747Z,0.00
2018-11-13T03:21:41.733Z,0.00
2018-11-13T03:22:41.724Z,0.00
2018-11-13T03:23:41.714Z,0.00
2018-11-13T03:24:41.704Z,0.00
2018-11-13T03:25:41.690Z,0.00
2018-11-13T03:26:41.680Z,0.00
2018-11-13T03:27:41.670Z,0.00
2018-11-13T03:28:41.660Z,0.00
2018-11-13T03:29:41.647Z,0.00
2018-11-13T03:30:41.636Z,0.00
2018-11-13T03:31:41.626Z,0.00
2018-11-13T03:32:41.614Z,0.00
2018-11-13T03:33:41.602Z,0.00
2018-11-13T03:34:41.591Z,0.00
2018-11-13T03:35:41.580Z,0.00
2018-11-13T03:36:41.570Z,0.00
2018-11-13T03:37:41.558Z,0.00
2018-11-13T03:38:41.552Z,0.00
2018-11-13T03:39:41.543Z,0.00
2018-11-13T03:40:41.525Z,0.00
2018-11-13T03:41:41.518Z,0.00
2018-11-13T03:42:41.503Z,0.00
2018-11-13T03:43:41.493Z,0.00
2018-11-13T03:44:41.479Z,0.00
2018-11-13T03:45:41.476Z,0.00
2018-11-13T03:46:41.461Z,0.00
2018-11-13T03:47:41.450Z,0.00
2018-11-13T03:48:41.438Z,0.00
2018-11-13T03:49:41.426Z,0.00
2018-11-13T03:50:41.415Z,0.00
2018-11-13T03:51:41.404Z,0.00
2018-11-13T03:52:41.394Z,0.00
2018-11-13T03:53:41.384Z,0.00
2018-11-13T03:54:41.373Z,0.00
2018-11-13T03:55:41.359Z,0.00
2018-11-13T03:56:41.349Z,0.00
2018-11-13T03:57:41.339Z,0.00
2018-11-13T03:58:41.326Z,0.00
2018-11-13T03:59:41.315Z,0.00
2018-11-13T04:00:41.305Z,0.00
2018-11-13T04:01:41.295Z,0.00
2018-11-13T04:02:41.283Z,0.00
2018-11-13T04:03:41.273Z,0.00
2018-11-13T04:04:41.264Z,0.00
2018-11-13T04:05:41.253Z,0.00
2018-11-13T04:06:41.244Z,0.00
2018-11-13T04:07:41.228Z,0.00
2018-11-13T04:08:41.218Z,0.00
2018-11-13T04:09:41.207Z,0.00
2018-11-13T04:10:41.203Z,0.00
2018-11-13T04:11:41.189Z,0.00
2018-11-13T04:12:41.173Z,0.00
2018-11-13T04:13:41.164Z,0.00
2018-11-13T04:14:41.149Z,0.00
2018-11-13T04:15:41.139Z,0.00
2018-11-13T04:16:41.128Z,0.00
2018-11-13T04:17:41.119Z,0.00
2018-11-13T04:18:41.110Z,0.00
2018-11-13T04:19:41.096Z,0.00
2018-11-13T04:20:41.085Z,0.00
2018-11-13T04:21:41.074Z,0.00
2018-11-13T04:22:41.064Z,0.00
2018-11-13T04:23:41.062Z,0.00
2018-11-13T04:24:41.046Z,0.00
2018-11-13T04:25:41.029Z,0.00
2018-11-13T04:26:41.024Z,0.00
2018-11-13T04:27:41.007Z,0.00
2018-11-13T04:28:40.999Z,0.00
2018-11-13T04:29:40.985Z,0.00
2018-11-13T04:30:41.060Z,0.00
2018-11-13T04:31:40.963Z,0.00
2018-11-13T04:32:40.953Z,0.00
2018-11-13T04:33:40.944Z,0.00
2018-11-13T04:34:40.933Z,0.00
2018-11-13T04:35:40.922Z,0.00
2018-11-13T04:36:40.909Z,0.00
2018-11-13T04:37:40.898Z,0.00
2018-11-13T04:38:40.889Z,0.00
2018-11-13T04:39:40.876Z,0.00
2018-11-13T04:40:40.864Z,0.00
2018-11-13T04:41:40.858Z,0.00
2018-11-13T04:42:40.844Z,0.00
2018-11-13T04:43:40.835Z,0.00
2018-11-13T04:44:40.823Z,0.00
2018-11-13T04:45:40.810Z,0.00
2018-11-13T04:46:40.800Z,0.00
2018-11-13T04:47:40.790Z,0.00
2018-11-13T04:48:40.777Z,0.00
2018-11-13T04:49:40.769Z,0.00
2018-11-13T04:50:40.755Z,0.00
2018-11-13T04:51:40.871Z,0.00
2018-11-13T04:52:40.735Z,0.00
2018-11-13T04:53:40.728Z,0.00
2018-11-13T04:54:40.710Z,0.00
2018-11-13T04:55:40.699Z,0.00
2018-11-13T04:56:40.689Z,0.00
2018-11-13T04:57:40.680Z,0.00
2018-11-13T04:58:40.668Z,0.00
2018-11-13T04:59:40.657Z,0.00
2018-11-13T05:00:40.657Z,0.00
2018-11-13T05:01:40.639Z,0.00
2018-11-13T05:02:40.644Z,0.00
2018-11-13T05:03:40.614Z,0.00
2018-11-13T05:04:40.602Z,0.00
2018-11-13T05:05:40.592Z,0.00
2018-11-13T05:06:40.583Z,0.00
2018-11-13T05:07:40.568Z,0.00
2018-11-13T05:08:40.561Z,0.00
2018-11-13T05:09:40.547Z,0.00
2018-11-13T05:10:40.538Z,0.00
2018-11-13T05:11:40.525Z,0.00
2018-11-13T05:12:40.515Z,0.00
2018-11-13T05:13:40.503Z,0.00
2018-11-13T05:14:40.492Z,0.00
2018-11-13T05:15:40.483Z,0.00
2018-11-13T05:16:40.473Z,0.00
2018-11-13T05:17:40.458Z,0.00
2018-11-13T05:18:40.450Z,0.00
2018-11-13T05:19:40.439Z,0.00
2018-11-13T05:20:40.426Z,0.00
2018-11-13T05:21:40.415Z,0.00
2018-11-13T05:22:40.404Z,0.00
2018-11-13T05:23:40.392Z,0.00
2018-11-13T05:24:40.386Z,0.00
2018-11-13T05:25:40.373Z,0.00
2018-11-13T05:26:40.360Z,0.00
2018-11-13T05:27:40.347Z,0.00
2018-11-13T05:28:40.338Z,0.00
2018-11-13T05:29:40.327Z,0.00
2018-11-13T05:30:40.322Z,0.00
2018-11-13T05:31:40.310Z,0.00
2018-11-13T05:32:40.293Z,0.00
2018-11-13T05:33:40.284Z,0.00
2018-11-13T05:34:40.276Z,0.00
2018-11-13T05:35:40.260Z,0.00
2018-11-13T05:36:40.252Z,0.00
2018-11-13T05:37:40.240Z,0.00
2018-11-13T05:38:40.229Z,0.00
2018-11-13T05:39:40.216Z,0.00
2018-11-13T05:40:40.207Z,0.00
2018-11-13T05:41:40.260Z,0.00
2018-11-13T05:42:40.183Z,0.00
2018-11-13T05:43:40.173Z,0.00
2018-11-13T05:44:40.162Z,0.00
2018-11-13T05:45:40.156Z,0.00
2018-11-13T05:46:40.140Z,0.00
2018-11-13T05:47:40.136Z,0.00
2018-11-13T05:48:40.118Z,0.00
2018-11-13T05:49:40.110Z,0.00
2018-11-13T05:50:40.100Z,0.00
2018-11-13T05:51:40.086Z,0.00
2018-11-13T05:52:40.074Z,0.00
2018-11-13T05:53:40.062Z,0.00
2018-11-13T05:54:40.054Z,0.00
2018-11-13T05:55:40.043Z,0.00
2018-11-13T05:56:40.032Z,0.00
2018-11-13T05:57:40.021Z,0.00
2018-11-13T05:58:40.009Z,0.00
2018-11-13T05:59:40.007Z,0.00
2018-11-13T06:00:39.992Z,0.00
2018-11-13T06:01:39.974Z,0.00
2018-11-13T06:02:39.965Z,0.00
2018-11-13T06:03:39.956Z,0.00
2018-11-13T06:04:39.944Z,0.00
2018-11-13T06:05:39.934Z,0.00
2018-11-13T06:06:39.924Z,0.00
2018-11-13T06:07:39.911Z,0.00
2018-11-13T06:08:39.996Z,0.00
2018-11-13T06:09:39.905Z,0.00
2018-11-13T06:10:39.878Z,0.00
2018-11-13T06:11:39.868Z,0.00
2018-11-13T06:12:39.858Z,0.00
2018-11-13T06:13:39.852Z,0.00
2018-11-13T06:14:39.835Z,0.00
2018-11-13T06:15:39.826Z,0.00
2018-11-13T06:16:39.810Z,0.00
2018-11-13T06:17:39.802Z,0.00
2018-11-13T06:18:39.789Z,4.00
2018-11-13T06:19:39.778Z,4.00
2018-11-13T06:20:39.768Z,4.00
2018-11-13T06:21:39.758Z,4.00
2018-11-13T06:22:39.747Z,4.00
2018-11-13T06:23:39.736Z,8.00
2018-11-13T06:24:39.724Z,8.00
2018-11-13T06:25:39.711Z,8.00
2018-11-13T06:26:39.699Z,12.00
2018-11-13T06:27:39.689Z,8.00
2018-11-13T06:28:39.680Z,12.00
2018-11-13T06:29:39.768Z,12.00
2018-11-13T06:30:39.657Z,12.00
2018-11-13T06:31:39.649Z,16.00
2018-11-13T06:32:39.635Z,16.00
2018-11-13T06:33:39.624Z,20.00
2018-11-13T06:34:39.613Z,24.00
2018-11-13T06:35:39.601Z,28.00
2018-11-13T06:36:39.592Z,32.00
2018-11-13T06:37:39.584Z,40.00
2018-11-13T06:38:39.580Z,48.00
2018-11-13T06:39:39.560Z,56.00
2018-11-13T06:40:39.547Z,64.00
2018-11-13T06:41:39.538Z,72.00
2018-11-13T06:42:39.528Z,76.00
2018-11-13T06:43:39.514Z,72.00
2018-11-13T06:44:39.533Z,60.00
2018-11-13T06:45:39.493Z,56.00
2018-11-13T06:46:39.481Z,56.00
2018-11-13T06:47:39.471Z,56.00
2018-11-13T06:48:39.459Z,56.00
2018-11-13T06:49:39.472Z,60.00
2018-11-13T06:50:39.438Z,64.00
2018-11-13T06:51:39.427Z,72.00
2018-11-13T06:52:39.416Z,76.00
2018-11-13T06:53:39.405Z,72.00
2018-11-13T06:54:39.394Z,72.00
2018-11-13T06:55:39.381Z,72.00
2018-11-13T06:56:39.370Z,76.00
2018-11-13T06:57:39.368Z,84.00
2018-11-13T06:58:39.363Z,92.00
2018-11-13T06:59:39.347Z,88.00
2018-11-13T07:00:39.340Z,84.00
2018-11-13T07:01:39.328Z,88.00
2018-11-13T07:02:39.314Z,84.00
2018-11-13T07:03:39.306Z,88.00
2018-11-13T07:04:39.283Z,92.00
2018-11-13T07:05:39.279Z,104.00
2018-11-13T07:06:39.259Z,116.00
2018-11-13T07:07:39.250Z,116.00
2018-11-13T07:08:39.239Z,120.00
2018-11-13T07:09:39.227Z,128.00
2018-11-13T07:10:39.232Z,144.00
2018-11-13T07:11:39.208Z,152.00
2018-11-13T07:12:39.205Z,160.00
2018-11-13T07:13:39.270Z,176.00
2018-11-13T07:14:39.174Z,200.00
2018-11-13T07:15:39.203Z,232.00
2018-11-13T07:17:00.437Z,260.00
2018-11-13T07:18:00.347Z,260.00
2018-11-13T07:19:00.309Z,280.00
2018-11-13T07:20:00.386Z,312.00
2018-11-13T07:21:00.310Z,348.00
2018-11-13T07:22:00.280Z,392.00
2018-11-13T07:23:00.266Z,448.00
2018-11-13T07:24:00.256Z,476.00
2018-11-13T07:25:00.251Z,480.00
2018-11-13T07:26:00.234Z,480.00
2018-11-13T07:27:00.273Z,500.00
2018-11-13T07:28:00.293Z,556.00
2018-11-13T07:29:00.204Z,636.00
2018-11-13T07:30:00.190Z,720.00
2018-11-13T07:31:00.178Z,760.00
2018-11-13T07:32:00.165Z,764.00
2018-11-13T07:33:00.161Z,764.00
2018-11-13T07:34:00.145Z,764.00
2018-11-13T07:35:00.137Z,768.00
2018-11-13T07:36:00.122Z,804.00
2018-11-13T07:37:00.113Z,856.00
2018-11-13T07:38:00.104Z,932.00
2018-11-13T07:39:00.090Z,1008.00
2018-11-13T07:40:00.081Z,1140.00
2018-11-13T07:41:00.136Z,1140.00
2018-11-13T07:42:00.059Z,1092.00
2018-11-13T07:43:00.049Z,1088.00
2018-11-13T07:44:00.037Z,1116.00
2018-11-13T07:45:00.027Z,1168.00
2018-11-13T07:46:00.016Z,1272.00
2018-11-13T07:47:00.109Z,1408.00
2018-11-13T07:48:00.117Z,1460.00
2018-11-13T07:48:59.980Z,1528.00
2018-11-13T07:49:59.970Z,1616.00
2018-11-13T07:50:59.971Z,1688.00
2018-11-13T07:51:59.946Z,1796.00
2018-11-13T07:52:59.953Z,1936.00
2018-11-13T07:54:00.012Z,2044.00
2018-11-13T07:54:59.914Z,2072.00
2018-11-13T07:55:59.902Z,2036.00
2018-11-13T07:56:59.892Z,1904.00
2018-11-13T07:57:59.886Z,1776.00
2018-11-13T07:58:59.873Z,1664.00
2018-11-13T07:59:59.861Z,1600.00
2018-11-13T08:00:59.850Z,1560.00
2018-11-13T08:01:59.839Z,1572.00
2018-11-13T08:02:59.828Z,1608.00
2018-11-13T08:03:59.818Z,1724.00
2018-11-13T08:04:59.808Z,1908.00
2018-11-13T08:05:59.806Z,1748.00
2018-11-13T08:06:59.785Z,1964.00
2018-11-13T08:07:59.774Z,2820.00
2018-11-13T08:08:59.761Z,2012.00
2018-11-13T08:09:59.753Z,1956.00
2018-11-13T08:10:59.741Z,2000.00
2018-11-13T08:11:59.734Z,1856.00
2018-11-13T08:12:59.833Z,1860.00
2018-11-13T08:13:59.707Z,1880.00
2018-11-13T08:14:59.695Z,1996.00
2018-11-13T08:15:59.687Z,2100.00
2018-11-13T08:16:59.676Z,2224.00
2018-11-13T08:17:59.740Z,2392.00
2018-11-13T08:18:59.651Z,2528.00
2018-11-13T08:19:59.641Z,2620.00
2018-11-13T08:20:59.640Z,2736.00
2018-11-13T08:21:59.647Z,2884.00
2018-11-13T08:22:59.608Z,3056.00
2018-11-13T08:23:59.596Z,3284.00
2018-11-13T08:24:59.585Z,3428.00
2018-11-13T08:25:59.576Z,3660.00
2018-11-13T08:26:59.629Z,4364.00
2018-11-13T08:27:59.571Z,4500.00
2018-11-13T08:28:59.679Z,5164.00
2018-11-13T08:29:59.531Z,5392.00
2018-11-13T08:30:59.520Z,5048.00
2018-11-13T08:31:59.509Z,4616.00
2018-11-13T08:32:59.499Z,3984.00
2018-11-13T08:33:59.489Z,4340.00
2018-11-13T08:34:59.495Z,3400.00
2018-11-13T08:35:59.466Z,4116.00
2018-11-13T08:36:59.453Z,4728.00
2018-11-13T08:37:59.443Z,3984.00
2018-11-13T08:38:59.431Z,4788.00
2018-11-13T08:39:59.427Z,3324.00
2018-11-13T08:40:59.408Z,4296.00
2018-11-13T08:41:59.398Z,3008.00
2018-11-13T08:42:59.387Z,4004.00
2018-11-13T08:43:59.412Z,5064.00
2018-11-13T08:44:59.366Z,5160.00
2018-11-13T08:45:59.359Z,4916.00
2018-11-13T08:46:59.343Z,5272.00
2018-11-13T08:47:59.339Z,5348.00
2018-11-13T08:48:59.324Z,5576.00
2018-11-13T08:49:59.310Z,5328.00
2018-11-13T08:50:59.299Z,5728.00
2018-11-13T08:51:59.293Z,5380.00
2018-11-13T08:52:59.279Z,4324.00
2018-11-13T08:53:59.266Z,5880.00
2018-11-13T08:54:59.257Z,5900.00
2018-11-13T08:55:59.248Z,5768.00
2018-11-13T08:56:59.233Z,5748.00
2018-11-13T08:57:59.227Z,5776.00
2018-11-13T08:58:59.316Z,6072.00
2018-11-13T08:59:59.202Z,6524.00
2018-11-13T09:00:59.189Z,6964.00
2018-11-13T09:01:59.179Z,7072.00
2018-11-13T09:02:59.172Z,7332.00
2018-11-13T09:03:59.159Z,7348.00
2018-11-13T09:04:59.165Z,7212.00
2018-11-13T09:05:59.137Z,7252.00
2018-11-13T09:06:59.124Z,7420.00
2018-11-13T09:07:59.114Z,7484.00
2018-11-13T09:08:59.102Z,7568.00
2018-11-13T09:09:59.090Z,7652.00
2018-11-13T09:10:59.079Z,5500.00
2018-11-13T09:11:59.300Z,7548.00
2018-11-13T09:12:59.062Z,5308.00
2018-11-13T09:13:59.048Z,5516.00
2018-11-13T09:14:59.039Z,4928.00
2018-11-13T09:15:59.026Z,4736.00
2018-11-13T09:16:59.013Z,4592.00
2018-11-13T09:17:59.010Z,6284.00
2018-11-13T09:18:59.026Z,7332.00
2018-11-13T09:19:58.982Z,7528.00
2018-11-13T09:20:58.969Z,7608.00
2018-11-13T09:21:58.959Z,6768.00
2018-11-13T09:22:58.952Z,7632.00
2018-11-13T09:23:58.941Z,7496.00
2018-11-13T09:24:58.926Z,7424.00
2018-11-13T09:25:58.916Z,8628.00
2018-11-13T09:26:58.905Z,8504.00
2018-11-13T09:27:58.896Z,8652.00
2018-11-13T09:28:58.882Z,8416.00
2018-11-13T09:29:58.920Z,7624.00
2018-11-13T09:30:59.164Z,6248.00
2018-11-13T09:31:58.921Z,6680.00
2018-11-13T09:32:58.910Z,6732.00
2018-11-13T09:33:58.827Z,8800.00
2018-11-13T09:34:58.823Z,8672.00
2018-11-13T09:35:58.811Z,8232.00
2018-11-13T09:36:58.796Z,7368.00
2018-11-13T09:37:58.785Z,7852.00
2018-11-13T09:38:58.775Z,8616.00
2018-11-13T09:39:58.761Z,7292.00
2018-11-13T09:40:58.754Z,7760.00
2018-11-13T09:41:58.743Z,6588.00
2018-11-13T09:42:58.729Z,6772.00
2018-11-13T09:43:58.718Z,6644.00
2018-11-13T09:44:58.785Z,6700.00
2018-11-13T09:45:58.802Z,6772.00
2018-11-13T09:46:58.693Z,7044.00
2018-11-13T09:47:58.676Z,7256.00
2018-11-13T09:48:58.666Z,7056.00
2018-11-13T09:49:58.654Z,6600.00
2018-11-13T09:50:58.646Z,4480.00
2018-11-13T09:51:58.629Z,7784.00
2018-11-13T09:52:58.624Z,6896.00
2018-11-13T09:53:58.616Z,7992.00
2018-11-13T09:54:58.601Z,8172.00
2018-11-13T09:55:58.587Z,8464.00
2018-11-13T09:56:58.579Z,8452.00
2018-11-13T09:57:58.565Z,7412.00
2018-11-13T09:58:58.582Z,5364.00
2018-11-13T09:59:58.621Z,5328.00
2018-11-13T10:00:58.700Z,7064.00
2018-11-13T10:01:58.925Z,8204.00
2018-11-13T10:02:59.189Z,5656.00
2018-11-13T10:03:58.801Z,8800.00
2018-11-13T10:04:59.140Z,5748.00
2018-11-13T10:05:58.560Z,8508.00
2018-11-13T10:06:58.528Z,8260.00
2018-11-13T10:07:58.457Z,8224.00
2018-11-13T10:08:58.446Z,7880.00
2018-11-13T10:09:58.447Z,5540.00
2018-11-13T10:10:58.423Z,5812.00
2018-11-13T10:11:58.414Z,7564.00
2018-11-13T10:12:58.404Z,5936.00
2018-11-13T10:13:58.396Z,5624.00
2018-11-13T10:14:58.379Z,5196.00
2018-11-13T10:15:58.370Z,4664.00
2018-11-13T10:16:58.363Z,4468.00
2018-11-13T10:17:58.523Z,4448.00
2018-11-13T10:18:58.335Z,4864.00
2018-11-13T10:19:58.327Z,4940.00
2018-11-13T10:20:58.315Z,6144.00
2018-11-13T10:21:58.305Z,5276.00
2018-11-13T10:22:58.293Z,6152.00
2018-11-13T10:23:58.282Z,5436.00
2018-11-13T10:24:58.270Z,5500.00
2018-11-13T10:25:58.260Z,8924.00
2018-11-13T10:26:58.290Z,9040.00
2018-11-13T10:27:58.246Z,8768.00
2018-11-13T10:28:58.232Z,9200.00
2018-11-13T10:29:58.244Z,9004.00
2018-11-13T10:30:58.206Z,8972.00
2018-11-13T10:31:58.195Z,9056.00
2018-11-13T10:32:58.182Z,9620.00
2018-11-13T10:33:58.178Z,9656.00
2018-11-13T10:34:58.161Z,9400.00
2018-11-13T10:35:58.159Z,8396.00
2018-11-13T10:36:58.141Z,8440.00
2018-11-13T10:37:58.129Z,8396.00
2018-11-13T10:38:58.120Z,8712.00
2018-11-13T10:39:58.148Z,7188.00
2018-11-13T10:40:58.219Z,6732.00
2018-11-13T10:41:58.085Z,7180.00
2018-11-13T10:42:58.073Z,5244.00
2018-11-13T10:43:58.066Z,9568.00
2018-11-13T10:44:58.051Z,6412.00
2018-11-13T10:45:58.041Z,9508.00
2018-11-13T10:46:58.029Z,9676.00
2018-11-13T10:47:58.020Z,9592.00
2018-11-13T10:48:58.056Z,5884.00
2018-11-13T10:49:57.998Z,6016.00
2018-11-13T10:50:57.988Z,10360.00
2018-11-13T10:51:57.979Z,10668.00
2018-11-13T10:52:57.964Z,7684.00
2018-11-13T10:53:57.954Z,7816.00
2018-11-13T10:54:57.944Z,9956.00
2018-11-13T10:55:57.934Z,10324.00
2018-11-13T10:56:57.922Z,8212.00
2018-11-13T10:57:57.912Z,8440.00
2018-11-13T10:58:57.899Z,7048.00
2018-11-13T10:59:57.890Z,7016.00
2018-11-13T11:00:57.879Z,6732.00
2018-11-13T11:01:57.867Z,6528.00
2018-11-13T11:02:57.916Z,6884.00
2018-11-13T11:03:57.844Z,7236.00
2018-11-13T11:04:57.835Z,6696.00
2018-11-13T11:05:57.824Z,9464.00
2018-11-13T11:06:57.815Z,9636.00
2018-11-13T11:07:57.801Z,8388.00
2018-11-13T11:08:57.791Z,8276.00
2018-11-13T11:09:57.780Z,7756.00
2018-11-13T11:10:57.767Z,7232.00
2018-11-13T11:11:57.759Z,6788.00
2018-11-13T11:12:57.790Z,3492.00
2018-11-13T11:13:57.953Z,2576.00
2018-11-13T11:14:57.728Z,2252.00
2018-11-13T11:15:57.714Z,2372.00
2018-11-13T11:16:57.703Z,2824.00
2018-11-13T11:17:57.736Z,2732.00
2018-11-13T11:18:57.827Z,2644.00
2018-11-13T11:19:57.672Z,3120.00
2018-11-13T11:20:57.659Z,4148.00
2018-11-13T11:21:57.646Z,5272.00
2018-11-13T11:22:57.708Z,5120.00
2018-11-13T11:23:57.644Z,5152.00
2018-11-13T11:24:57.616Z,5028.00
2018-11-13T11:25:57.610Z,4692.00
2018-11-13T11:26:57.592Z,4204.00
2018-11-13T11:27:57.660Z,3440.00
2018-11-13T11:28:57.570Z,2828.00
2018-11-13T11:29:57.566Z,2624.00
2018-11-13T11:30:57.591Z,3812.00
2018-11-13T11:31:57.538Z,5620.00
2018-11-13T11:32:57.526Z,6564.00
2018-11-13T11:33:57.516Z,6864.00
2018-11-13T11:34:57.505Z,6428.00
2018-11-13T11:35:57.493Z,5828.00
2018-11-13T11:36:57.480Z,5532.00
2018-11-13T11:37:57.475Z,5440.00
2018-11-13T11:38:57.629Z,5272.00
2018-11-13T11:39:57.451Z,5420.00
2018-11-13T11:40:57.436Z,5456.00
2018-11-13T11:41:57.426Z,5320.00
2018-11-13T11:42:57.415Z,5096.00
2018-11-13T11:43:57.404Z,5412.00
2018-11-13T11:44:57.395Z,6744.00
2018-11-13T11:45:57.382Z,8600.00
2018-11-13T11:46:57.372Z,8524.00
2018-11-13T11:47:57.363Z,7568.00
2018-11-13T11:48:57.351Z,6772.00
2018-11-13T11:49:57.338Z,6852.00
2018-11-13T11:50:57.327Z,7144.00
2018-11-13T11:51:57.316Z,7184.00
2018-11-13T11:52:57.304Z,7208.00
2018-11-13T11:53:57.333Z,7140.00
2018-11-13T11:54:57.285Z,6968.00
2018-11-13T11:55:57.272Z,6028.00
2018-11-13T11:56:57.266Z,5640.00
2018-11-13T11:57:57.251Z,5248.00
2018-11-13T11:58:57.245Z,5280.00
2018-11-13T11:59:57.227Z,5548.00
2018-11-13T12:00:57.219Z,6048.00
2018-11-13T12:01:57.208Z,6240.00
2018-11-13T12:02:57.204Z,5792.00
2018-11-13T12:03:57.183Z,5296.00
2018-11-13T12:04:57.174Z,4864.00
2018-11-13T12:05:57.162Z,4980.00
2018-11-13T12:06:57.152Z,5072.00
2018-11-13T12:07:57.144Z,5128.00
2018-11-13T12:08:57.133Z,4928.00
2018-11-13T12:09:57.121Z,5008.00
2018-11-13T12:10:57.110Z,4876.00
2018-11-13T12:11:57.096Z,5104.00
2018-11-13T12:12:57.086Z,5264.00
2018-11-13T12:13:57.076Z,5652.00
2018-11-13T12:14:57.064Z,5764.00
2018-11-13T12:15:57.054Z,5524.00
2018-11-13T12:16:57.041Z,5260.00
2018-11-13T12:17:57.038Z,5060.00
2018-11-13T12:18:57.038Z,4564.00
2018-11-13T12:19:57.010Z,4140.00
2018-11-13T12:20:57.012Z,4364.00
2018-11-13T12:21:56.988Z,4452.00
2018-11-13T12:22:56.986Z,4420.00
2018-11-13T12:23:56.964Z,4512.00
2018-11-13T12:24:56.960Z,4680.00
2018-11-13T12:25:57.088Z,4680.00
2018-11-13T12:26:56.933Z,4860.00
2018-11-13T12:27:56.923Z,5128.00
2018-11-13T12:28:56.911Z,5232.00
2018-11-13T12:29:56.913Z,5176.00
2018-11-13T12:30:56.893Z,5392.00
2018-11-13T12:31:56.879Z,5548.00
2018-11-13T12:32:56.867Z,5696.00
2018-11-13T12:33:56.859Z,5540.00
2018-11-13T12:34:56.848Z,5780.00
2018-11-13T12:35:56.834Z,5792.00
2018-11-13T12:36:56.823Z,5712.00
2018-11-13T12:37:56.812Z,5104.00
2018-11-13T12:38:56.806Z,4964.00
2018-11-13T12:39:56.790Z,4512.00
2018-11-13T12:40:56.822Z,4380.00
2018-11-13T12:41:56.772Z,4380.00
2018-11-13T12:42:56.759Z,4692.00
2018-11-13T12:43:56.747Z,4580.00
2018-11-13T12:44:56.737Z,4384.00